Jindrichuv Hradec, Czech Republic
Current Conditions -  °F | °C
As of 7:06 PM on Tuesday 27 Jan 2015 (Local Time) from LKNA Reporting Station
Broken Clouds Broken Clouds  
Wind Chill: 24°   Ceiling: 3000
Heat Index: 32°   Visibility: 6mi
Dew Point: 30°   Wind: 9mph
Humidity: 93%   Direction: 310°NW
Pressure: 29.97"   Gusts: NA
Location:  49.15°N, 14.99°E
Report Text: LKNA 271706Z 31008KT 9999 SCT015 BKN030 00/M01 Q1015 NOSIG
Loading
Personal Weather Stations






























Interactive Weather Map New forecast layout! Learn more

10-Day Weather Forecast

Advertisements
Track Severe Weather on mobile